sensor_id;sensor_type;location;lat;lon;timestamp;temperature;humidity
10042;DHT22;5061;49.068;12.058;2023-05-17T00:01:25;8.70;99.90
10042;DHT22;5061;49.068;12.058;2023-05-17T00:04:45;8.70;99.90
10042;DHT22;5061;49.068;12.058;2023-05-17T00:08:06;8.70;99.90
10042;DHT22;5061;49.068;12.058;2023-05-17T00:11:27;8.60;99.90
10042;DHT22;5061;49.068;12.058;2023-05-17T00:14:47;8.50;99.90
10042;DHT22;5061;49.068;12.058;2023-05-17T00:18:08;8.50;99.90
10042;DHT22;5061;49.068;12.058;2023-05-17T00:21:28;8.50;99.90
10042;DHT22;5061;49.068;12.058;2023-05-17T00:24:49;8.40;99.90
10042;DHT22;5061;49.068;12.058;2023-05-17T00:28:10;8.40;99.90
10042;DHT22;5061;49.068;12.058;2023-05-17T00:31:30;8.30;99.90
10042;DHT22;5061;49.068;12.058;2023-05-17T00:34:51;8.30;99.90
10042;DHT22;5061;49.068;12.058;2023-05-17T00:38:11;8.30;99.90
10042;DHT22;5061;49.068;12.058;2023-05-17T00:41:32;8.30;99.90
10042;DHT22;5061;49.068;12.058;2023-05-17T00:44:52;8.30;99.90
10042;DHT22;5061;49.068;12.058;2023-05-17T00:48:13;8.20;99.90
10042;DHT22;5061;49.068;12.058;2023-05-17T00:51:34;8.20;99.90
10042;DHT22;5061;49.068;12.058;2023-05-17T00:54:55;8.20;99.90
10042;DHT22;5061;49.068;12.058;2023-05-17T00:58:16;8.20;99.90
10042;DHT22;5061;49.068;12.058;2023-05-17T01:01:37;8.20;99.90
10042;DHT22;5061;49.068;12.058;2023-05-17T01:05:00;8.10;99.90
10042;DHT22;5061;49.068;12.058;2023-05-17T01:08:21;8.10;99.90
10042;DHT22;5061;49.068;12.058;2023-05-17T01:11:52;8.10;99.90
10042;DHT22;5061;49.068;12.058;2023-05-17T01:15:24;8.10;99.90
10042;DHT22;5061;49.068;12.058;2023-05-17T01:18:53;8.10;99.90
10042;DHT22;5061;49.068;12.058;2023-05-17T01:22:47;8.00;99.90
10042;DHT22;5061;49.068;12.058;2023-05-17T01:29:55;8.00;99.90
10042;DHT22;5061;49.068;12.058;2023-05-17T01:33:17;7.90;99.90
10042;DHT22;5061;49.068;12.058;2023-05-17T01:36:38;7.90;99.90
10042;DHT22;5061;49.068;12.058;2023-05-17T01:39:59;7.90;99.90
10042;DHT22;5061;49.068;12.058;2023-05-17T01:43:49;7.90;99.90
10042;DHT22;5061;49.068;12.058;2023-05-17T01:47:29;7.80;99.90
10042;DHT22;5061;49.068;12.058;2023-05-17T01:50:53;7.80;99.90
10042;DHT22;5061;49.068;12.058;2023-05-17T01:54:20;7.80;99.90
10042;DHT22;5061;49.068;12.058;2023-05-17T01:57:43;7.70;99.90
10042;DHT22;5061;49.068;12.058;2023-05-17T02:01:05;7.70;99.90
10042;DHT22;5061;49.068;12.058;2023-05-17T02:04:25;7.70;99.90
10042;DHT22;5061;49.068;12.058;2023-05-17T02:07:46;7.70;99.90
10042;DHT22;5061;49.068;12.058;2023-05-17T02:11:07;7.60;99.90
10042;DHT22;5061;49.068;12.058;2023-05-17T02:14:27;7.60;99.90
10042;DHT22;5061;49.068;12.058;2023-05-17T02:17:48;7.60;99.90
10042;DHT22;5061;49.068;12.058;2023-05-17T02:21:09;7.50;99.90
10042;DHT22;5061;49.068;12.058;2023-05-17T02:24:31;7.50;99.90
10042;DHT22;5061;49.068;12.058;2023-05-17T02:27:51;7.50;99.90
10042;DHT22;5061;49.068;12.058;2023-05-17T02:31:12;7.50;99.90
10042;DHT22;5061;49.068;12.058;2023-05-17T02:34:32;7.40;99.90
10042;DHT22;5061;49.068;12.058;2023-05-17T02:37:53;7.40;99.90
10042;DHT22;5061;49.068;12.058;2023-05-17T02:41:14;7.40;99.90
10042;DHT22;5061;49.068;12.058;2023-05-17T02:44:34;7.40;99.90
10042;DHT22;5061;49.068;12.058;2023-05-17T02:47:55;7.30;99.90
10042;DHT22;5061;49.068;12.058;2023-05-17T02:51:15;7.30;99.90
10042;DHT22;5061;49.068;12.058;2023-05-17T02:54:36;7.30;99.90
10042;DHT22;5061;49.068;12.058;2023-05-17T02:57:56;7.20;99.90
10042;DHT22;5061;49.068;12.058;2023-05-17T03:01:17;7.20;99.90
10042;DHT22;5061;49.068;12.058;2023-05-17T03:04:38;7.20;99.90
10042;DHT22;5061;49.068;12.058;2023-05-17T03:07:58;7.10;99.90
10042;DHT22;5061;49.068;12.058;2023-05-17T03:11:19;7.10;99.90
10042;DHT22;5061;49.068;12.058;2023-05-17T03:14:39;7.10;99.90
10042;DHT22;5061;49.068;12.058;2023-05-17T03:18:00;7.10;99.90
10042;DHT22;5061;49.068;12.058;2023-05-17T03:21:21;7.00;99.90
10042;DHT22;5061;49.068;12.058;2023-05-17T03:24:41;7.00;99.90
10042;DHT22;5061;49.068;12.058;2023-05-17T03:28:02;7.00;99.90
10042;DHT22;5061;49.068;12.058;2023-05-17T03:31:23;7.00;99.90
10042;DHT22;5061;49.068;12.058;2023-05-17T03:34:43;6.90;99.90
10042;DHT22;5061;49.068;12.058;2023-05-17T03:38:04;6.90;99.90
10042;DHT22;5061;49.068;12.058;2023-05-17T03:41:24;6.90;99.90
10042;DHT22;5061;49.068;12.058;2023-05-17T03:44:45;6.90;99.90
10042;DHT22;5061;49.068;12.058;2023-05-17T03:48:05;6.80;99.90
10042;DHT22;5061;49.068;12.058;2023-05-17T03:51:26;6.80;99.90
10042;DHT22;5061;49.068;12.058;2023-05-17T03:54:47;6.80;99.90
10042;DHT22;5061;49.068;12.058;2023-05-17T03:58:07;6.80;99.90
10042;DHT22;5061;49.068;12.058;2023-05-17T04:01:28;6.80;99.90
10042;DHT22;5061;49.068;12.058;2023-05-17T04:04:49;6.80;99.90
10042;DHT22;5061;49.068;12.058;2023-05-17T04:08:10;6.70;99.90
10042;DHT22;5061;49.068;12.058;2023-05-17T04:11:30;6.70;99.90
10042;DHT22;5061;49.068;12.058;2023-05-17T04:14:52;6.70;99.90
10042;DHT22;5061;49.068;12.058;2023-05-17T04:18:12;6.70;99.90
10042;DHT22;5061;49.068;12.058;2023-05-17T04:21:33;6.70;99.90
10042;DHT22;5061;49.068;12.058;2023-05-17T04:24:54;6.60;99.90
10042;DHT22;5061;49.068;12.058;2023-05-17T04:28:14;6.60;99.90
10042;DHT22;5061;49.068;12.058;2023-05-17T04:31:35;6.60;99.90
10042;DHT22;5061;49.068;12.058;2023-05-17T04:34:55;6.60;99.90
10042;DHT22;5061;49.068;12.058;2023-05-17T04:38:16;6.60;99.90
10042;DHT22;5061;49.068;12.058;2023-05-17T04:41:36;6.60;99.90
10042;DHT22;5061;49.068;12.058;2023-05-17T04:44:57;6.50;99.90
10042;DHT22;5061;49.068;12.058;2023-05-17T04:48:17;6.60;99.90
10042;DHT22;5061;49.068;12.058;2023-05-17T04:51:39;6.60;99.90
10042;DHT22;5061;49.068;12.058;2023-05-17T04:55:00;6.60;99.90
10042;DHT22;5061;49.068;12.058;2023-05-17T04:58:21;6.60;99.90
10042;DHT22;5061;49.068;12.058;2023-05-17T05:01:43;6.60;99.90
10042;DHT22;5061;49.068;12.058;2023-05-17T05:05:04;6.60;99.90
10042;DHT22;5061;49.068;12.058;2023-05-17T05:08:26;6.60;99.90
10042;DHT22;5061;49.068;12.058;2023-05-17T05:11:46;6.60;99.90
10042;DHT22;5061;49.068;12.058;2023-05-17T05:15:07;6.60;99.90
10042;DHT22;5061;49.068;12.058;2023-05-17T05:18:28;6.60;99.90
10042;DHT22;5061;49.068;12.058;2023-05-17T05:21:48;6.60;99.90
10042;DHT22;5061;49.068;12.058;2023-05-17T05:25:09;6.70;99.90
10042;DHT22;5061;49.068;12.058;2023-05-17T05:28:30;6.70;99.90
10042;DHT22;5061;49.068;12.058;2023-05-17T05:31:50;6.70;99.90
10042;DHT22;5061;49.068;12.058;2023-05-17T05:35:11;6.70;99.90
10042;DHT22;5061;49.068;12.058;2023-05-17T05:38:32;6.80;99.90
10042;DHT22;5061;49.068;12.058;2023-05-17T05:41:52;6.90;99.90
10042;DHT22;5061;49.068;12.058;2023-05-17T05:45:13;7.00;99.90
10042;DHT22;5061;49.068;12.058;2023-05-17T05:48:34;7.00;99.90
10042;DHT22;5061;49.068;12.058;2023-05-17T05:51:58;7.10;99.90
10042;DHT22;5061;49.068;12.058;2023-05-17T05:55:19;7.20;99.90
10042;DHT22;5061;49.068;12.058;2023-05-17T05:58:39;7.30;99.90
10042;DHT22;5061;49.068;12.058;2023-05-17T06:02:00;7.40;99.90
10042;DHT22;5061;49.068;12.058;2023-05-17T06:05:21;7.50;99.90
10042;DHT22;5061;49.068;12.058;2023-05-17T06:08:41;7.60;99.90
10042;DHT22;5061;49.068;12.058;2023-05-17T06:12:05;7.70;99.90
10042;DHT22;5061;49.068;12.058;2023-05-17T06:15:26;7.80;99.90
10042;DHT22;5061;49.068;12.058;2023-05-17T06:18:47;7.90;99.90
10042;DHT22;5061;49.068;12.058;2023-05-17T06:22:07;7.90;99.90
10042;DHT22;5061;49.068;12.058;2023-05-17T06:25:28;8.00;99.90
10042;DHT22;5061;49.068;12.058;2023-05-17T06:28:48;8.00;99.90
10042;DHT22;5061;49.068;12.058;2023-05-17T06:32:09;8.00;99.90
10042;DHT22;5061;49.068;12.058;2023-05-17T06:35:30;8.00;99.90
10042;DHT22;5061;49.068;12.058;2023-05-17T06:38:51;8.00;99.90
10042;DHT22;5061;49.068;12.058;2023-05-17T06:42:12;8.10;99.90
10042;DHT22;5061;49.068;12.058;2023-05-17T06:45:32;8.10;99.90
10042;DHT22;5061;49.068;12.058;2023-05-17T06:48:53;8.10;99.90
10042;DHT22;5061;49.068;12.058;2023-05-17T06:52:13;8.10;99.90
10042;DHT22;5061;49.068;12.058;2023-05-17T06:55:34;8.10;99.90
10042;DHT22;5061;49.068;12.058;2023-05-17T06:58:55;8.20;99.90
10042;DHT22;5061;49.068;12.058;2023-05-17T07:02:15;8.30;99.90
10042;DHT22;5061;49.068;12.058;2023-05-17T07:05:36;8.30;99.90
10042;DHT22;5061;49.068;12.058;2023-05-17T07:08:57;8.30;99.90
10042;DHT22;5061;49.068;12.058;2023-05-17T07:12:17;8.40;99.90
10042;DHT22;5061;49.068;12.058;2023-05-17T07:15:38;8.40;99.90
10042;DHT22;5061;49.068;12.058;2023-05-17T07:18:58;8.50;99.90
10042;DHT22;5061;49.068;12.058;2023-05-17T07:22:19;8.50;99.90
10042;DHT22;5061;49.068;12.058;2023-05-17T07:25:39;8.50;99.90
10042;DHT22;5061;49.068;12.058;2023-05-17T07:29:02;8.50;99.90
10042;DHT22;5061;49.068;12.058;2023-05-17T07:32:22;8.60;99.90
10042;DHT22;5061;49.068;12.058;2023-05-17T07:35:43;8.60;99.90
10042;DHT22;5061;49.068;12.058;2023-05-17T07:39:04;8.70;99.90
10042;DHT22;5061;49.068;12.058;2023-05-17T07:42:24;8.70;99.90
10042;DHT22;5061;49.068;12.058;2023-05-17T07:45:45;8.80;99.90
10042;DHT22;5061;49.068;12.058;2023-05-17T07:49:06;8.80;99.90
10042;DHT22;5061;49.068;12.058;2023-05-17T07:52:27;8.90;99.90
10042;DHT22;5061;49.068;12.058;2023-05-17T07:55:47;9.00;99.90
10042;DHT22;5061;49.068;12.058;2023-05-17T07:59:08;9.00;99.90
10042;DHT22;5061;49.068;12.058;2023-05-17T08:02:28;9.10;99.90
10042;DHT22;5061;49.068;12.058;2023-05-17T08:05:49;9.20;99.90
10042;DHT22;5061;49.068;12.058;2023-05-17T08:09:10;9.30;99.90
10042;DHT22;5061;49.068;12.058;2023-05-17T08:12:31;9.40;99.90
10042;DHT22;5061;49.068;12.058;2023-05-17T08:15:51;9.50;99.90
10042;DHT22;5061;49.068;12.058;2023-05-17T08:19:13;9.60;99.90
10042;DHT22;5061;49.068;12.058;2023-05-17T08:22:34;9.60;99.90
10042;DHT22;5061;49.068;12.058;2023-05-17T08:25:56;9.70;99.90
10042;DHT22;5061;49.068;12.058;2023-05-17T08:29:16;9.80;99.90
10042;DHT22;5061;49.068;12.058;2023-05-17T08:32:37;9.80;99.90
10042;DHT22;5061;49.068;12.058;2023-05-17T08:35:58;9.90;99.90
10042;DHT22;5061;49.068;12.058;2023-05-17T08:39:20;10.00;99.90
10042;DHT22;5061;49.068;12.058;2023-05-17T08:42:41;10.00;99.90
10042;DHT22;5061;49.068;12.058;2023-05-17T08:46:02;10.00;99.90
10042;DHT22;5061;49.068;12.058;2023-05-17T08:49:24;10.10;99.90
10042;DHT22;5061;49.068;12.058;2023-05-17T08:52:48;10.10;99.90
10042;DHT22;5061;49.068;12.058;2023-05-17T08:56:10;10.20;99.90
10042;DHT22;5061;49.068;12.058;2023-05-17T08:59:33;10.30;99.90
10042;DHT22;5061;49.068;12.058;2023-05-17T09:02:54;10.40;99.90
10042;DHT22;5061;49.068;12.058;2023-05-17T09:06:16;10.50;99.90
10042;DHT22;5061;49.068;12.058;2023-05-17T09:09:39;10.60;99.90
10042;DHT22;5061;49.068;12.058;2023-05-17T09:13:01;10.70;99.90
10042;DHT22;5061;49.068;12.058;2023-05-17T09:16:21;10.80;99.90
10042;DHT22;5061;49.068;12.058;2023-05-17T09:19:44;10.90;99.90
10042;DHT22;5061;49.068;12.058;2023-05-17T09:23:06;11.00;99.90
10042;DHT22;5061;49.068;12.058;2023-05-17T09:26:41;11.10;99.90
10042;DHT22;5061;49.068;12.058;2023-05-17T09:30:03;11.20;99.90
10042;DHT22;5061;49.068;12.058;2023-05-17T09:33:27;11.30;99.90
10042;DHT22;5061;49.068;12.058;2023-05-17T09:36:49;11.40;99.90
10042;DHT22;5061;49.068;12.058;2023-05-17T09:40:22;11.50;99.90
10042;DHT22;5061;49.068;12.058;2023-05-17T09:43:43;11.60;99.90
10042;DHT22;5061;49.068;12.058;2023-05-17T09:47:04;11.70;99.90
10042;DHT22;5061;49.068;12.058;2023-05-17T09:50:25;11.80;99.90
10042;DHT22;5061;49.068;12.058;2023-05-17T09:53:46;11.90;99.90
10042;DHT22;5061;49.068;12.058;2023-05-17T09:57:13;12.00;99.90
10042;DHT22;5061;49.068;12.058;2023-05-17T10:00:34;12.10;99.90
10042;DHT22;5061;49.068;12.058;2023-05-17T10:03:59;12.20;99.90
10042;DHT22;5061;49.068;12.058;2023-05-17T10:07:24;12.20;99.90
10042;DHT22;5061;49.068;12.058;2023-05-17T10:10:46;12.30;99.90
10042;DHT22;5061;49.068;12.058;2023-05-17T10:14:15;12.40;99.90
10042;DHT22;5061;49.068;12.058;2023-05-17T10:17:38;12.40;99.90
10042;DHT22;5061;49.068;12.058;2023-05-17T10:21:01;12.50;99.90
10042;DHT22;5061;49.068;12.058;2023-05-17T10:24:22;12.60;99.90
10042;DHT22;5061;49.068;12.058;2023-05-17T10:27:43;12.60;99.90
10042;DHT22;5061;49.068;12.058;2023-05-17T10:31:04;12.70;99.90
10042;DHT22;5061;49.068;12.058;2023-05-17T10:34:27;12.80;99.90
10042;DHT22;5061;49.068;12.058;2023-05-17T10:37:48;13.00;99.90
10042;DHT22;5061;49.068;12.058;2023-05-17T10:41:10;13.00;99.90
10042;DHT22;5061;49.068;12.058;2023-05-17T10:44:33;13.10;99.90
10042;DHT22;5061;49.068;12.058;2023-05-17T10:47:54;13.20;99.90
10042;DHT22;5061;49.068;12.058;2023-05-17T10:51:24;13.20;99.90
10042;DHT22;5061;49.068;12.058;2023-05-17T10:54:47;13.30;99.90
10042;DHT22;5061;49.068;12.058;2023-05-17T11:01:49;13.60;99.90
10042;DHT22;5061;49.068;12.058;2023-05-17T11:05:25;13.70;99.90
10042;DHT22;5061;49.068;12.058;2023-05-17T11:09:15;13.80;99.70
10042;DHT22;5061;49.068;12.058;2023-05-17T11:12:42;13.80;98.30
10042;DHT22;5061;49.068;12.058;2023-05-17T11:16:06;13.70;99.20
10042;DHT22;5061;49.068;12.058;2023-05-17T11:19:30;13.70;96.80
10042;DHT22;5061;49.068;12.058;2023-05-17T11:22:59;13.50;97.80
10042;DHT22;5061;49.068;12.058;2023-05-17T11:26:33;13.50;98.40
10042;DHT22;5061;49.068;12.058;2023-05-17T11:29:56;13.50;97.40
10042;DHT22;5061;49.068;12.058;2023-05-17T11:33:18;13.40;98.00
10042;DHT22;5061;49.068;12.058;2023-05-17T11:36:51;13.40;98.10
10042;DHT22;5061;49.068;12.058;2023-05-17T11:40:12;13.40;98.20
10042;DHT22;5061;49.068;12.058;2023-05-17T11:43:34;13.40;97.70
10042;DHT22;5061;49.068;12.058;2023-05-17T11:47:04;13.30;97.80
10042;DHT22;5061;49.068;12.058;2023-05-17T11:50:25;13.20;96.70
10042;DHT22;5061;49.068;12.058;2023-05-17T11:53:46;13.00;97.30
10042;DHT22;5061;49.068;12.058;2023-05-17T11:57:08;13.00;97.60
10042;DHT22;5061;49.068;12.058;2023-05-17T12:00:30;13.00;97.80
10042;DHT22;5061;49.068;12.058;2023-05-17T12:03:56;13.00;97.40
10042;DHT22;5061;49.068;12.058;2023-05-17T12:07:19;13.00;96.80
10042;DHT22;5061;49.068;12.058;2023-05-17T12:10:52;13.00;97.50
10042;DHT22;5061;49.068;12.058;2023-05-17T12:14:15;13.00;97.10
10042;DHT22;5061;49.068;12.058;2023-05-17T12:17:41;13.00;97.20
10042;DHT22;5061;49.068;12.058;2023-05-17T12:21:05;13.00;96.50
10042;DHT22;5061;49.068;12.058;2023-05-17T12:24:36;12.90;96.30
10042;DHT22;5061;49.068;12.058;2023-05-17T12:28:15;12.90;97.00
10042;DHT22;5061;49.068;12.058;2023-05-17T12:31:40;12.90;97.00
10042;DHT22;5061;49.068;12.058;2023-05-17T12:35:01;13.00;97.00
10042;DHT22;5061;49.068;12.058;2023-05-17T12:38:22;13.00;96.20
10042;DHT22;5061;49.068;12.058;2023-05-17T12:41:44;13.00;96.40
10042;DHT22;5061;49.068;12.058;2023-05-17T12:45:05;13.00;96.30
10042;DHT22;5061;49.068;12.058;2023-05-17T12:48:26;13.10;96.30
10042;DHT22;5061;49.068;12.058;2023-05-17T12:51:47;13.10;96.80
10042;DHT22;5061;49.068;12.058;2023-05-17T12:55:12;13.30;96.50
10042;DHT22;5061;49.068;12.058;2023-05-17T12:58:32;13.40;96.60
10042;DHT22;5061;49.068;12.058;2023-05-17T13:01:55;13.50;96.50
10042;DHT22;5061;49.068;12.058;2023-05-17T13:05:17;13.50;96.30
10042;DHT22;5061;49.068;12.058;2023-05-17T13:08:38;13.50;96.20
10042;DHT22;5061;49.068;12.058;2023-05-17T13:12:03;13.50;96.10
10042;DHT22;5061;49.068;12.058;2023-05-17T13:15:28;13.50;96.40
10042;DHT22;5061;49.068;12.058;2023-05-17T13:18:50;13.70;96.40
10042;DHT22;5061;49.068;12.058;2023-05-17T13:22:11;13.90;95.50
10042;DHT22;5061;49.068;12.058;2023-05-17T13:25:32;14.00;96.30
10042;DHT22;5061;49.068;12.058;2023-05-17T13:28:52;14.20;95.70
10042;DHT22;5061;49.068;12.058;2023-05-17T13:32:13;14.20;95.90
10042;DHT22;5061;49.068;12.058;2023-05-17T13:35:33;14.10;96.20
10042;DHT22;5061;49.068;12.058;2023-05-17T13:38:54;14.30;96.10
10042;DHT22;5061;49.068;12.058;2023-05-17T13:42:16;14.20;96.20
10042;DHT22;5061;49.068;12.058;2023-05-17T13:45:36;14.30;95.70
10042;DHT22;5061;49.068;12.058;2023-05-17T13:48:57;14.50;95.80
10042;DHT22;5061;49.068;12.058;2023-05-17T13:52:18;14.90;95.60
10042;DHT22;5061;49.068;12.058;2023-05-17T13:55:39;15.10;95.30
10042;DHT22;5061;49.068;12.058;2023-05-17T13:59:00;15.30;94.80
10042;DHT22;5061;49.068;12.058;2023-05-17T14:02:21;15.20;95.60
10042;DHT22;5061;49.068;12.058;2023-05-17T14:05:41;15.10;95.40
10042;DHT22;5061;49.068;12.058;2023-05-17T14:09:02;14.90;95.50
10042;DHT22;5061;49.068;12.058;2023-05-17T14:12:24;14.70;95.60
10042;DHT22;5061;49.068;12.058;2023-05-17T14:15:45;14.60;95.50
10042;DHT22;5061;49.068;12.058;2023-05-17T14:19:05;14.30;95.50
10042;DHT22;5061;49.068;12.058;2023-05-17T14:22:26;14.10;95.20
10042;DHT22;5061;49.068;12.058;2023-05-17T14:25:46;13.90;95.30
10042;DHT22;5061;49.068;12.058;2023-05-17T14:29:08;13.90;95.40
10042;DHT22;5061;49.068;12.058;2023-05-17T14:32:29;14.10;95.90
10042;DHT22;5061;49.068;12.058;2023-05-17T14:35:49;14.30;95.50
10042;DHT22;5061;49.068;12.058;2023-05-17T14:39:10;14.50;95.60
10042;DHT22;5061;49.068;12.058;2023-05-17T14:42:31;14.70;94.60
10042;DHT22;5061;49.068;12.058;2023-05-17T14:45:51;14.80;95.00
10042;DHT22;5061;49.068;12.058;2023-05-17T14:49:12;14.80;94.20
10042;DHT22;5061;49.068;12.058;2023-05-17T14:52:33;14.70;94.30
10042;DHT22;5061;49.068;12.058;2023-05-17T14:55:57;14.50;94.80
10042;DHT22;5061;49.068;12.058;2023-05-17T14:59:18;14.40;94.80
10042;DHT22;5061;49.068;12.058;2023-05-17T15:02:39;14.40;95.20
10042;DHT22;5061;49.068;12.058;2023-05-17T15:06:00;14.30;95.30
10042;DHT22;5061;49.068;12.058;2023-05-17T15:09:21;14.30;95.30
10042;DHT22;5061;49.068;12.058;2023-05-17T15:12:43;14.20;95.30
10042;DHT22;5061;49.068;12.058;2023-05-17T15:16:04;14.20;95.10
10042;DHT22;5061;49.068;12.058;2023-05-17T15:19:25;14.00;95.20
10042;DHT22;5061;49.068;12.058;2023-05-17T15:22:45;14.00;95.20
10042;DHT22;5061;49.068;12.058;2023-05-17T15:26:07;13.90;95.00
10042;DHT22;5061;49.068;12.058;2023-05-17T15:29:27;13.60;95.00
10042;DHT22;5061;49.068;12.058;2023-05-17T15:32:50;13.40;95.00
10042;DHT22;5061;49.068;12.058;2023-05-17T15:36:11;13.30;95.10
10042;DHT22;5061;49.068;12.058;2023-05-17T15:39:33;13.10;95.10
10042;DHT22;5061;49.068;12.058;2023-05-17T15:42:53;12.90;95.40
10042;DHT22;5061;49.068;12.058;2023-05-17T15:46:14;12.90;95.60
10042;DHT22;5061;49.068;12.058;2023-05-17T15:49:34;12.80;95.30
10042;DHT22;5061;49.068;12.058;2023-05-17T15:52:55;12.70;95.50
10042;DHT22;5061;49.068;12.058;2023-05-17T15:56:16;12.70;95.70
10042;DHT22;5061;49.068;12.058;2023-05-17T15:59:40;12.70;95.60
10042;DHT22;5061;49.068;12.058;2023-05-17T16:03:01;12.70;95.90
10042;DHT22;5061;49.068;12.058;2023-05-17T16:06:21;12.80;96.00
10042;DHT22;5061;49.068;12.058;2023-05-17T16:09:42;12.90;96.10
10042;DHT22;5061;49.068;12.058;2023-05-17T16:13:03;13.10;96.20
10042;DHT22;5061;49.068;12.058;2023-05-17T16:16:24;13.10;96.10
10042;DHT22;5061;49.068;12.058;2023-05-17T16:19:44;13.20;95.70
10042;DHT22;5061;49.068;12.058;2023-05-17T16:23:05;13.10;95.50
10042;DHT22;5061;49.068;12.058;2023-05-17T16:26:26;13.00;95.60
10042;DHT22;5061;49.068;12.058;2023-05-17T16:29:47;12.90;95.50
10042;DHT22;5061;49.068;12.058;2023-05-17T16:33:10;12.80;95.60
10042;DHT22;5061;49.068;12.058;2023-05-17T16:36:33;12.80;95.80
10042;DHT22;5061;49.068;12.058;2023-05-17T16:39:54;12.70;95.70
10042;DHT22;5061;49.068;12.058;2023-05-17T16:43:14;12.70;95.90
10042;DHT22;5061;49.068;12.058;2023-05-17T16:46:36;12.60;95.90
10042;DHT22;5061;49.068;12.058;2023-05-17T16:49:57;12.60;96.00
10042;DHT22;5061;49.068;12.058;2023-05-17T16:53:18;12.50;96.00
10042;DHT22;5061;49.068;12.058;2023-05-17T16:56:38;12.40;96.10
10042;DHT22;5061;49.068;12.058;2023-05-17T16:59:59;12.40;96.10
10042;DHT22;5061;49.068;12.058;2023-05-17T17:03:20;12.40;96.20
10042;DHT22;5061;49.068;12.058;2023-05-17T17:06:43;12.30;96.20
10042;DHT22;5061;49.068;12.058;2023-05-17T17:10:04;12.30;96.30
10042;DHT22;5061;49.068;12.058;2023-05-17T17:13:25;12.20;96.30
10042;DHT22;5061;49.068;12.058;2023-05-17T17:16:46;12.20;96.40
10042;DHT22;5061;49.068;12.058;2023-05-17T17:20:07;12.10;96.40
10042;DHT22;5061;49.068;12.058;2023-05-17T17:23:28;12.10;96.40
10042;DHT22;5061;49.068;12.058;2023-05-17T17:26:49;12.10;96.50
10042;DHT22;5061;49.068;12.058;2023-05-17T17:30:10;12.00;96.50
10042;DHT22;5061;49.068;12.058;2023-05-17T17:33:30;12.00;96.50
10042;DHT22;5061;49.068;12.058;2023-05-17T17:36:52;12.00;96.50
10042;DHT22;5061;49.068;12.058;2023-05-17T17:40:13;12.00;96.50
10042;DHT22;5061;49.068;12.058;2023-05-17T17:43:34;11.90;96.50
10042;DHT22;5061;49.068;12.058;2023-05-17T17:46:54;11.80;96.50
10042;DHT22;5061;49.068;12.058;2023-05-17T17:50:15;11.80;96.60
10042;DHT22;5061;49.068;12.058;2023-05-17T17:53:35;11.70;96.70
10042;DHT22;5061;49.068;12.058;2023-05-17T17:56:57;11.70;96.80
10042;DHT22;5061;49.068;12.058;2023-05-17T18:00:18;11.70;96.90
10042;DHT22;5061;49.068;12.058;2023-05-17T18:03:38;11.60;96.90
10042;DHT22;5061;49.068;12.058;2023-05-17T18:06:59;11.50;96.90
10042;DHT22;5061;49.068;12.058;2023-05-17T18:10:21;11.50;96.90
10042;DHT22;5061;49.068;12.058;2023-05-17T18:13:42;11.40;96.90
10042;DHT22;5061;49.068;12.058;2023-05-17T18:17:02;11.40;97.00
10042;DHT22;5061;49.068;12.058;2023-05-17T18:20:23;11.40;97.10
10042;DHT22;5061;49.068;12.058;2023-05-17T18:23:45;11.30;97.00
10042;DHT22;5061;49.068;12.058;2023-05-17T18:27:06;11.30;97.10
10042;DHT22;5061;49.068;12.058;2023-05-17T18:30:32;11.30;97.10
10042;DHT22;5061;49.068;12.058;2023-05-17T18:33:52;11.20;97.10
10042;DHT22;5061;49.068;12.058;2023-05-17T18:37:13;11.20;97.20
10042;DHT22;5061;49.068;12.058;2023-05-17T18:40:34;11.20;97.20
10042;DHT22;5061;49.068;12.058;2023-05-17T18:43:54;11.10;97.30
10042;DHT22;5061;49.068;12.058;2023-05-17T18:47:20;11.10;97.30
10042;DHT22;5061;49.068;12.058;2023-05-17T18:50:47;11.00;97.30
10042;DHT22;5061;49.068;12.058;2023-05-17T18:54:08;10.90;97.30
10042;DHT22;5061;49.068;12.058;2023-05-17T18:57:29;10.90;97.30
10042;DHT22;5061;49.068;12.058;2023-05-17T19:00:49;10.90;97.40
10042;DHT22;5061;49.068;12.058;2023-05-17T19:04:18;10.80;97.40
10042;DHT22;5061;49.068;12.058;2023-05-17T19:07:38;10.80;97.40
10042;DHT22;5061;49.068;12.058;2023-05-17T19:10:59;10.70;97.40
10042;DHT22;5061;49.068;12.058;2023-05-17T19:14:23;10.70;97.50
10042;DHT22;5061;49.068;12.058;2023-05-17T19:17:44;10.60;97.50
10042;DHT22;5061;49.068;12.058;2023-05-17T19:21:05;10.60;97.60
10042;DHT22;5061;49.068;12.058;2023-05-17T19:24:26;10.50;97.60
10042;DHT22;5061;49.068;12.058;2023-05-17T19:27:47;10.50;97.70
10042;DHT22;5061;49.068;12.058;2023-05-17T19:31:08;10.40;97.70
10042;DHT22;5061;49.068;12.058;2023-05-17T19:34:28;10.40;97.80
10042;DHT22;5061;49.068;12.058;2023-05-17T19:37:49;10.30;97.90
10042;DHT22;5061;49.068;12.058;2023-05-17T19:41:09;10.20;97.90
10042;DHT22;5061;49.068;12.058;2023-05-17T19:44:30;10.20;98.10
10042;DHT22;5061;49.068;12.058;2023-05-17T19:47:51;10.10;98.00
10042;DHT22;5061;49.068;12.058;2023-05-17T19:51:12;10.10;98.00
10042;DHT22;5061;49.068;12.058;2023-05-17T19:54:33;10.10;98.20
10042;DHT22;5061;49.068;12.058;2023-05-17T19:57:54;10.10;98.20
10042;DHT22;5061;49.068;12.058;2023-05-17T20:01:14;10.00;98.30
10042;DHT22;5061;49.068;12.058;2023-05-17T20:04:35;10.00;98.30
10042;DHT22;5061;49.068;12.058;2023-05-17T20:07:55;10.00;98.30
10042;DHT22;5061;49.068;12.058;2023-05-17T20:11:16;9.90;99.20
10042;DHT22;5061;49.068;12.058;2023-05-17T20:14:37;9.90;99.20
10042;DHT22;5061;49.068;12.058;2023-05-17T20:17:57;9.80;98.90
10042;DHT22;5061;49.068;12.058;2023-05-17T20:21:18;9.80;99.00
10042;DHT22;5061;49.068;12.058;2023-05-17T20:24:39;9.80;99.00
10042;DHT22;5061;49.068;12.058;2023-05-17T20:27:59;9.70;99.10
10042;DHT22;5061;49.068;12.058;2023-05-17T20:31:20;9.70;99.10
10042;DHT22;5061;49.068;12.058;2023-05-17T20:34:41;9.70;99.20
10042;DHT22;5061;49.068;12.058;2023-05-17T20:38:02;9.60;99.20
10042;DHT22;5061;49.068;12.058;2023-05-17T20:41:22;9.60;99.30
10042;DHT22;5061;49.068;12.058;2023-05-17T20:44:44;9.60;99.30
10042;DHT22;5061;49.068;12.058;2023-05-17T20:48:04;9.50;99.30
10042;DHT22;5061;49.068;12.058;2023-05-17T20:51:25;9.50;99.50
10042;DHT22;5061;49.068;12.058;2023-05-17T20:54:46;9.50;99.50
10042;DHT22;5061;49.068;12.058;2023-05-17T20:58:10;9.40;99.50
10042;DHT22;5061;49.068;12.058;2023-05-17T21:01:31;9.40;99.60
10042;DHT22;5061;49.068;12.058;2023-05-17T21:04:52;9.40;99.70
10042;DHT22;5061;49.068;12.058;2023-05-17T21:08:13;9.30;99.60
10042;DHT22;5061;49.068;12.058;2023-05-17T21:11:34;9.30;99.70
10042;DHT22;5061;49.068;12.058;2023-05-17T21:14:55;9.30;99.80
10042;DHT22;5061;49.068;12.058;2023-05-17T21:18:15;9.20;99.80
10042;DHT22;5061;49.068;12.058;2023-05-17T21:21:36;9.20;99.80
10042;DHT22;5061;49.068;12.058;2023-05-17T21:24:56;9.20;99.90
10042;DHT22;5061;49.068;12.058;2023-05-17T21:28:17;9.10;99.90
10042;DHT22;5061;49.068;12.058;2023-05-17T21:31:38;9.10;99.90